world map with SUB marked

SUB - Airport

This information may not be accurate or current and is not valid for navigation or flight planning. No warranty of fitness for any purpose is made or implied.

flag of Jawa Timurflag of Indonesia

Donate via PayPal

Additional information is available on the NEW Great Circle Mapper

Location
City:  Surabaya, Jawa Timur, Indonesia
Name:Juanda International Airport
ICAO / IATA:WARR / SUB

Details
Type:Airport (Aerodrome, Airfield)
Use:Public/Civil, Military
Latitude:7°22'47"S (-7.379830)
Longitude:112°47'13"E (112.786858)
Datum:WGS 1984
Elevation:9 ft (3 m)
Runways:1
Longest:9843 × 148 ft (3000 × 45 m)

Time
Timezone:UTC+7 (DST+9)
Local Time:

Weather
METAR:WARR  172230Z 00000KT 2000 HZ FEW020 24/24 Q1007 NOSIG
TAF:WARR  (expired)

Related Locations
Nearby:
Farthest:SFD: 12434 mi / 20011 km
San Fernando de Apu, J, VE

Find:

   beyond  
but within

Other Information
Maps:
Links:
Sources:

  


 


Great Circle Mapper   Great Circle Mapper
Great Circle Mapper FAQ   Great Circle Mapper FAQ
  Karl's Home Page
KLSē   KLSē Home
   GC on Facebook
Airlines of the World   Airlines of the World
Donate via PayPal


Copyright © 2004-2017, Karl L. Swartz. All rights reserved.
All trademarks mentioned herein belong to their respective owners.

Please see credits for attribution and copyright information.

Karl Swartz <karl@kls2.com>
  Powered by FreeBSD
Valid HTML 4.01!
Labeled with ICRA
hCard Microformat
Geo Microformat